sensor_id;sensor_type;location;lat;lon;timestamp;pressure;altitude;pressure_sealevel;temperature;humidity
40650;BME280;26342;42.826;23.992;2024-03-02T00:02:13;94818.88;;;7.47;100.00
40650;BME280;26342;42.826;23.992;2024-03-02T00:04:39;94809.59;;;7.49;100.00
40650;BME280;26342;42.826;23.992;2024-03-02T00:07:06;94806.59;;;7.41;100.00
40650;BME280;26342;42.826;23.992;2024-03-02T00:09:31;94802.59;;;7.38;100.00
40650;BME280;26342;42.826;23.992;2024-03-02T00:11:58;94801.84;;;7.43;100.00
40650;BME280;26342;42.826;23.992;2024-03-02T00:14:24;94800.53;;;7.45;100.00
40650;BME280;26342;42.826;23.992;2024-03-02T00:16:51;94798.94;;;7.44;100.00
40650;BME280;26342;42.826;23.992;2024-03-02T00:19:17;94796.22;;;7.39;100.00
40650;BME280;26342;42.826;23.992;2024-03-02T00:21:42;94805.06;;;7.45;100.00
40650;BME280;26342;42.826;23.992;2024-03-02T00:24:20;94790.56;;;7.31;100.00
40650;BME280;26342;42.826;23.992;2024-03-02T00:26:47;94806.03;;;7.39;100.00
40650;BME280;26342;42.826;23.992;2024-03-02T00:29:15;94805.53;;;7.42;100.00
40650;BME280;26342;42.826;23.992;2024-03-02T00:31:41;94801.53;;;7.39;100.00
40650;BME280;26342;42.826;23.992;2024-03-02T00:34:07;94793.06;;;7.42;100.00
40650;BME280;26342;42.826;23.992;2024-03-02T00:36:33;94791.25;;;7.48;100.00
40650;BME280;26342;42.826;23.992;2024-03-02T00:38:58;94794.53;;;7.55;100.00
40650;BME280;26342;42.826;23.992;2024-03-02T00:41:27;94790.00;;;7.55;100.00
40650;BME280;26342;42.826;23.992;2024-03-02T00:43:56;94787.91;;;7.57;100.00
40650;BME280;26342;42.826;23.992;2024-03-02T00:46:22;94780.44;;;7.54;100.00
40650;BME280;26342;42.826;23.992;2024-03-02T00:48:54;94780.25;;;7.61;100.00
40650;BME280;26342;42.826;23.992;2024-03-02T00:51:22;94778.59;;;7.55;100.00
40650;BME280;26342;42.826;23.992;2024-03-02T00:53:48;94774.09;;;7.55;100.00
40650;BME280;26342;42.826;23.992;2024-03-02T00:56:13;94769.03;;;7.54;100.00
40650;BME280;26342;42.826;23.992;2024-03-02T00:58:39;94766.66;;;7.57;100.00
40650;BME280;26342;42.826;23.992;2024-03-02T01:01:05;94771.75;;;7.64;100.00
40650;BME280;26342;42.826;23.992;2024-03-02T01:03:32;94770.09;;;7.53;100.00
40650;BME280;26342;42.826;23.992;2024-03-02T01:05:58;94764.44;;;7.44;100.00
40650;BME280;26342;42.826;23.992;2024-03-02T01:08:23;94757.81;;;7.47;100.00
40650;BME280;26342;42.826;23.992;2024-03-02T01:10:49;94757.75;;;7.42;100.00
40650;BME280;26342;42.826;23.992;2024-03-02T01:13:14;94760.41;;;7.42;100.00
40650;BME280;26342;42.826;23.992;2024-03-02T01:15:40;94751.88;;;7.35;100.00
40650;BME280;26342;42.826;23.992;2024-03-02T01:18:05;94750.50;;;7.32;100.00
40650;BME280;26342;42.826;23.992;2024-03-02T01:20:31;94752.88;;;7.28;100.00
40650;BME280;26342;42.826;23.992;2024-03-02T01:22:56;94753.59;;;7.19;100.00
40650;BME280;26342;42.826;23.992;2024-03-02T01:25:22;94745.25;;;7.10;100.00
40650;BME280;26342;42.826;23.992;2024-03-02T01:27:47;94740.38;;;7.02;100.00
40650;BME280;26342;42.826;23.992;2024-03-02T01:30:13;94742.25;;;7.02;100.00
40650;BME280;26342;42.826;23.992;2024-03-02T01:32:39;94725.72;;;6.94;100.00
40650;BME280;26342;42.826;23.992;2024-03-02T01:35:05;94733.44;;;6.96;100.00
40650;BME280;26342;42.826;23.992;2024-03-02T01:37:30;94729.75;;;6.97;100.00
40650;BME280;26342;42.826;23.992;2024-03-02T01:39:56;94723.31;;;6.93;100.00
40650;BME280;26342;42.826;23.992;2024-03-02T01:42:21;94722.53;;;6.92;100.00
40650;BME280;26342;42.826;23.992;2024-03-02T01:44:47;94730.78;;;6.96;100.00
40650;BME280;26342;42.826;23.992;2024-03-02T01:47:13;94738.19;;;6.94;100.00
40650;BME280;26342;42.826;23.992;2024-03-02T01:49:38;94734.97;;;6.92;100.00
40650;BME280;26342;42.826;23.992;2024-03-02T01:52:06;94737.63;;;6.92;100.00
40650;BME280;26342;42.826;23.992;2024-03-02T01:54:31;94737.38;;;6.93;100.00
40650;BME280;26342;42.826;23.992;2024-03-02T01:56:57;94737.09;;;6.90;100.00
40650;BME280;26342;42.826;23.992;2024-03-02T01:59:22;94744.78;;;6.91;100.00
40650;BME280;26342;42.826;23.992;2024-03-02T02:01:48;94736.59;;;6.93;100.00
40650;BME280;26342;42.826;23.992;2024-03-02T02:04:13;94744.25;;;6.89;100.00
40650;BME280;26342;42.826;23.992;2024-03-02T02:06:38;94746.66;;;6.91;100.00
40650;BME280;26342;42.826;23.992;2024-03-02T02:09:04;94746.09;;;6.89;100.00
40650;BME280;26342;42.826;23.992;2024-03-02T02:11:29;94735.16;;;6.85;100.00
40650;BME280;26342;42.826;23.992;2024-03-02T02:13:55;94737.03;;;6.85;100.00
40650;BME280;26342;42.826;23.992;2024-03-02T02:16:23;94729.25;;;6.78;100.00
40650;BME280;26342;42.826;23.992;2024-03-02T02:18:48;94722.97;;;6.62;100.00
40650;BME280;26342;42.826;23.992;2024-03-02T02:21:14;94731.63;;;6.75;100.00
40650;BME280;26342;42.826;23.992;2024-03-02T02:23:39;94731.91;;;6.78;100.00
40650;BME280;26342;42.826;23.992;2024-03-02T02:26:04;94733.50;;;6.79;100.00
40650;BME280;26342;42.826;23.992;2024-03-02T02:28:30;94737.16;;;6.73;100.00
40650;BME280;26342;42.826;23.992;2024-03-02T02:30:55;94738.22;;;6.72;100.00
40650;BME280;26342;42.826;23.992;2024-03-02T02:33:21;94745.66;;;6.75;100.00
40650;BME280;26342;42.826;23.992;2024-03-02T02:35:47;94743.28;;;6.74;100.00
40650;BME280;26342;42.826;23.992;2024-03-02T02:38:12;94752.50;;;6.71;100.00
40650;BME280;26342;42.826;23.992;2024-03-02T02:40:38;94747.44;;;6.69;100.00
40650;BME280;26342;42.826;23.992;2024-03-02T02:43:03;94756.53;;;6.74;100.00
40650;BME280;26342;42.826;23.992;2024-03-02T02:45:28;94748.44;;;6.63;100.00
40650;BME280;26342;42.826;23.992;2024-03-02T02:47:54;94751.34;;;6.62;100.00
40650;BME280;26342;42.826;23.992;2024-03-02T02:50:19;94752.50;;;6.71;100.00
40650;BME280;26342;42.826;23.992;2024-03-02T02:52:45;94753.00;;;6.68;100.00
40650;BME280;26342;42.826;23.992;2024-03-02T02:55:12;94752.56;;;6.76;100.00
40650;BME280;26342;42.826;23.992;2024-03-02T02:57:39;94754.16;;;6.77;100.00
40650;BME280;26342;42.826;23.992;2024-03-02T03:00:07;94753.69;;;6.80;100.00
40650;BME280;26342;42.826;23.992;2024-03-02T03:02:38;94760.28;;;6.78;100.00
40650;BME280;26342;42.826;23.992;2024-03-02T03:05:08;94756.81;;;6.77;100.00
40650;BME280;26342;42.826;23.992;2024-03-02T03:07:34;94758.13;;;6.75;100.00
40650;BME280;26342;42.826;23.992;2024-03-02T03:10:00;94751.69;;;6.70;100.00
40650;BME280;26342;42.826;23.992;2024-03-02T03:12:25;94748.31;;;6.75;100.00
40650;BME280;26342;42.826;23.992;2024-03-02T03:14:51;94752.56;;;6.76;100.00
40650;BME280;26342;42.826;23.992;2024-03-02T03:17:16;94751.28;;;6.79;100.00
40650;BME280;26342;42.826;23.992;2024-03-02T03:19:42;94747.44;;;6.69;100.00
40650;BME280;26342;42.826;23.992;2024-03-02T03:22:08;94746.47;;;6.76;100.00
40650;BME280;26342;42.826;23.992;2024-03-02T03:24:33;94744.31;;;6.72;100.00
40650;BME280;26342;42.826;23.992;2024-03-02T03:26:59;94748.41;;;6.80;100.00
40650;BME280;26342;42.826;23.992;2024-03-02T03:29:24;94752.38;;;6.83;100.00
40650;BME280;26342;42.826;23.992;2024-03-02T03:31:50;94763.78;;;6.83;100.00
40650;BME280;26342;42.826;23.992;2024-03-02T03:34:15;94757.94;;;6.81;100.00
40650;BME280;26342;42.826;23.992;2024-03-02T03:36:42;94775.63;;;6.76;100.00
40650;BME280;26342;42.826;23.992;2024-03-02T03:39:07;94779.03;;;6.71;100.00
40650;BME280;26342;42.826;23.992;2024-03-02T03:41:32;94776.75;;;6.80;100.00
40650;BME280;26342;42.826;23.992;2024-03-02T03:43:58;94771.81;;;6.66;100.00
40650;BME280;26342;42.826;23.992;2024-03-02T03:46:26;94771.28;;;6.64;100.00
40650;BME280;26342;42.826;23.992;2024-03-02T03:48:52;94773.66;;;6.66;100.00
40650;BME280;26342;42.826;23.992;2024-03-02T03:51:17;94778.09;;;6.60;100.00
40650;BME280;26342;42.826;23.992;2024-03-02T03:53:43;94779.22;;;6.64;100.00
40650;BME280;26342;42.826;23.992;2024-03-02T03:56:08;94775.78;;;6.64;100.00
40650;BME280;26342;42.826;23.992;2024-03-02T03:58:33;94772.28;;;6.63;100.00
40650;BME280;26342;42.826;23.992;2024-03-02T04:00:59;94769.47;;;6.70;100.00
40650;BME280;26342;42.826;23.992;2024-03-02T04:03:24;94768.13;;;6.67;100.00
40650;BME280;26342;42.826;23.992;2024-03-02T04:05:50;94769.66;;;6.63;100.00
40650;BME280;26342;42.826;23.992;2024-03-02T04:08:15;94770.47;;;6.64;100.00
40650;BME280;26342;42.826;23.992;2024-03-02T04:10:41;94769.34;;;6.60;100.00
40650;BME280;26342;42.826;23.992;2024-03-02T04:13:07;94771.91;;;6.55;100.00
40650;BME280;26342;42.826;23.992;2024-03-02T04:15:33;94754.81;;;6.40;100.00
40650;BME280;26342;42.826;23.992;2024-03-02T04:17:58;94778.53;;;6.52;100.00
40650;BME280;26342;42.826;23.992;2024-03-02T04:20:23;94776.84;;;6.46;100.00
40650;BME280;26342;42.826;23.992;2024-03-02T04:22:49;94775.88;;;6.52;100.00
40650;BME280;26342;42.826;23.992;2024-03-02T04:25:14;94778.78;;;6.51;100.00
40650;BME280;26342;42.826;23.992;2024-03-02T04:27:41;94776.13;;;6.51;100.00
40650;BME280;26342;42.826;23.992;2024-03-02T04:30:06;94776.97;;;6.34;100.00
40650;BME280;26342;42.826;23.992;2024-03-02T04:32:32;94777.22;;;6.33;100.00
40650;BME280;26342;42.826;23.992;2024-03-02T04:34:57;94778.25;;;6.32;100.00
40650;BME280;26342;42.826;23.992;2024-03-02T04:37:23;94776.66;;;6.31;100.00
40650;BME280;26342;42.826;23.992;2024-03-02T04:39:48;94771.69;;;6.34;100.00
40650;BME280;26342;42.826;23.992;2024-03-02T04:42:14;94776.22;;;6.39;100.00
40650;BME280;26342;42.826;23.992;2024-03-02T04:44:39;94777.34;;;6.43;100.00
40650;BME280;26342;42.826;23.992;2024-03-02T04:47:05;94785.06;;;6.44;100.00
40650;BME280;26342;42.826;23.992;2024-03-02T04:49:30;94793.50;;;6.41;100.00
40650;BME280;26342;42.826;23.992;2024-03-02T04:51:56;94784.75;;;6.41;100.00
40650;BME280;26342;42.826;23.992;2024-03-02T04:54:22;94787.44;;;6.46;100.00
40650;BME280;26342;42.826;23.992;2024-03-02T04:56:48;94784.97;;;6.56;100.00
40650;BME280;26342;42.826;23.992;2024-03-02T04:59:16;94788.44;;;6.62;100.00
40650;BME280;26342;42.826;23.992;2024-03-02T05:01:42;94792.16;;;6.61;100.00
40650;BME280;26342;42.826;23.992;2024-03-02T05:04:08;94795.84;;;6.60;100.00
40650;BME280;26342;42.826;23.992;2024-03-02T05:06:39;94796.09;;;6.58;100.00
40650;BME280;26342;42.826;23.992;2024-03-02T05:09:08;94790.00;;;6.58;100.00
40650;BME280;26342;42.826;23.992;2024-03-02T05:11:34;94791.84;;;6.57;100.00
40650;BME280;26342;42.826;23.992;2024-03-02T05:14:05;94799.19;;;6.50;100.00
40650;BME280;26342;42.826;23.992;2024-03-02T05:16:37;94803.69;;;6.50;100.00
40650;BME280;26342;42.826;23.992;2024-03-02T05:19:03;94802.94;;;6.54;100.00
40650;BME280;26342;42.826;23.992;2024-03-02T05:21:32;94810.88;;;6.54;100.00
40650;BME280;26342;42.826;23.992;2024-03-02T05:23:57;94810.97;;;6.59;100.00
40650;BME280;26342;42.826;23.992;2024-03-02T05:26:23;94807.09;;;6.67;100.00
40650;BME280;26342;42.826;23.992;2024-03-02T05:28:48;94808.81;;;6.56;100.00
40650;BME280;26342;42.826;23.992;2024-03-02T05:31:17;94819.72;;;6.60;100.00
40650;BME280;26342;42.826;23.992;2024-03-02T05:33:43;94813.44;;;6.66;100.00
40650;BME280;26342;42.826;23.992;2024-03-02T05:36:09;94817.94;;;6.65;100.00
40650;BME280;26342;42.826;23.992;2024-03-02T05:38:35;94818.25;;;6.69;100.00
40650;BME280;26342;42.826;23.992;2024-03-02T05:41:00;94824.09;;;6.71;100.00
40650;BME280;26342;42.826;23.992;2024-03-02T05:43:26;94827.78;;;6.70;100.00
40650;BME280;26342;42.826;23.992;2024-03-02T05:45:52;94826.19;;;6.69;100.00
40650;BME280;26342;42.826;23.992;2024-03-02T05:48:17;94826.88;;;6.59;100.00
40650;BME280;26342;42.826;23.992;2024-03-02T05:50:42;94820.22;;;6.57;100.00
40650;BME280;26342;42.826;23.992;2024-03-02T05:53:08;94810.25;;;6.47;100.00
40650;BME280;26342;42.826;23.992;2024-03-02T05:55:33;94834.91;;;6.64;100.00
40650;BME280;26342;42.826;23.992;2024-03-02T05:57:58;94833.09;;;6.70;100.00
40650;BME280;26342;42.826;23.992;2024-03-02T06:00:42;94840.59;;;6.73;100.00
40650;BME280;26342;42.826;23.992;2024-03-02T06:03:08;94840.59;;;6.73;100.00
40650;BME280;26342;42.826;23.992;2024-03-02T06:05:34;94841.22;;;6.80;100.00
40650;BME280;26342;42.826;23.992;2024-03-02T06:08:00;94837.00;;;6.84;100.00
40650;BME280;26342;42.826;23.992;2024-03-02T06:10:25;94842.06;;;6.86;100.00
40650;BME280;26342;42.826;23.992;2024-03-02T06:12:51;94845.22;;;6.83;100.00
40650;BME280;26342;42.826;23.992;2024-03-02T06:15:16;94839.53;;;6.74;100.00
40650;BME280;26342;42.826;23.992;2024-03-02T06:17:42;94840.59;;;6.73;100.00
40650;BME280;26342;42.826;23.992;2024-03-02T06:20:08;94831.50;;;6.69;100.00
40650;BME280;26342;42.826;23.992;2024-03-02T06:22:34;94833.91;;;6.70;100.00
40650;BME280;26342;42.826;23.992;2024-03-02T06:25:00;94844.28;;;6.72;100.00
40650;BME280;26342;42.826;23.992;2024-03-02T06:27:25;94834.09;;;6.64;100.00
40650;BME280;26342;42.826;23.992;2024-03-02T06:29:51;94840.25;;;6.69;100.00
40650;BME280;26342;42.826;23.992;2024-03-02T06:32:16;94852.25;;;6.72;100.00
40650;BME280;26342;42.826;23.992;2024-03-02T06:34:42;94848.63;;;6.61;100.00
40650;BME280;26342;42.826;23.992;2024-03-02T06:37:07;94846.31;;;6.65;100.00
40650;BME280;26342;42.826;23.992;2024-03-02T06:39:33;94851.59;;;6.65;100.00
40650;BME280;26342;42.826;23.992;2024-03-02T06:42:00;94859.19;;;6.78;100.00
40650;BME280;26342;42.826;23.992;2024-03-02T06:44:25;94859.25;;;6.83;100.00
40650;BME280;26342;42.826;23.992;2024-03-02T06:46:51;94858.09;;;6.74;100.00
40650;BME280;26342;42.826;23.992;2024-03-02T06:49:16;94851.34;;;6.66;100.00
40650;BME280;26342;42.826;23.992;2024-03-02T06:51:43;94856.31;;;6.80;100.00
40650;BME280;26342;42.826;23.992;2024-03-02T06:54:09;94850.50;;;6.83;100.00
40650;BME280;26342;42.826;23.992;2024-03-02T06:56:34;94865.13;;;6.85;100.00
40650;BME280;26342;42.826;23.992;2024-03-02T06:59:00;94858.13;;;6.79;100.00
40650;BME280;26342;42.826;23.992;2024-03-02T07:01:25;94862.72;;;6.84;100.00
40650;BME280;26342;42.826;23.992;2024-03-02T07:03:51;94864.81;;;6.82;100.00
40650;BME280;26342;42.826;23.992;2024-03-02T07:06:17;94868.81;;;6.84;100.00
40650;BME280;26342;42.826;23.992;2024-03-02T07:08:42;94865.69;;;6.87;100.00
40650;BME280;26342;42.826;23.992;2024-03-02T07:11:08;94864.16;;;6.91;100.00
40650;BME280;26342;42.826;23.992;2024-03-02T07:13:34;94865.91;;;6.86;100.00
40650;BME280;26342;42.826;23.992;2024-03-02T07:16:00;94863.91;;;6.93;100.00
40650;BME280;26342;42.826;23.992;2024-03-02T07:18:31;94872.09;;;6.91;100.00
40650;BME280;26342;42.826;23.992;2024-03-02T07:20:57;94865.75;;;6.92;100.00
40650;BME280;26342;42.826;23.992;2024-03-02T07:23:26;94863.03;;;6.87;100.00
40650;BME280;26342;42.826;23.992;2024-03-02T07:25:55;94868.66;;;6.91;100.00
40650;BME280;26342;42.826;23.992;2024-03-02T07:28:24;94869.44;;;6.91;100.00
40650;BME280;26342;42.826;23.992;2024-03-02T07:31:00;94874.56;;;6.98;100.00
40650;BME280;26342;42.826;23.992;2024-03-02T07:33:26;94869.75;;;6.95;100.00
40650;BME280;26342;42.826;23.992;2024-03-02T07:35:51;94875.38;;;6.98;100.00
40650;BME280;26342;42.826;23.992;2024-03-02T07:38:17;94872.19;;;6.96;100.00
40650;BME280;26342;42.826;23.992;2024-03-02T07:40:43;94875.63;;;6.97;100.00
40650;BME280;26342;42.826;23.992;2024-03-02T07:43:09;94874.84;;;6.96;100.00
40650;BME280;26342;42.826;23.992;2024-03-02T07:45:34;94869.53;;;6.96;100.00
40650;BME280;26342;42.826;23.992;2024-03-02T07:48:02;94871.13;;;6.97;100.00
40650;BME280;26342;42.826;23.992;2024-03-02T07:50:31;94877.31;;;7.03;100.00
40650;BME280;26342;42.826;23.992;2024-03-02T07:52:59;94877.31;;;7.03;100.00
40650;BME280;26342;42.826;23.992;2024-03-02T07:55:24;94883.97;;;7.06;100.00
40650;BME280;26342;42.826;23.992;2024-03-02T07:57:50;94876.00;;;7.06;100.00
40650;BME280;26342;42.826;23.992;2024-03-02T08:00:16;94882.28;;;6.99;100.00
40650;BME280;26342;42.826;23.992;2024-03-02T08:02:41;94876.97;;;6.99;100.00
40650;BME280;26342;42.826;23.992;2024-03-02T08:05:08;94874.66;;;7.03;100.00
40650;BME280;26342;42.826;23.992;2024-03-02T08:07:34;94884.84;;;7.11;100.00
40650;BME280;26342;42.826;23.992;2024-03-02T08:09:59;94878.16;;;7.09;100.00
40650;BME280;26342;42.826;23.992;2024-03-02T08:12:25;94885.56;;;7.07;100.00
40650;BME280;26342;42.826;23.992;2024-03-02T08:14:50;94886.53;;;7.00;100.00
40650;BME280;26342;42.826;23.992;2024-03-02T08:17:16;94880.44;;;7.00;100.00
40650;BME280;26342;42.826;23.992;2024-03-02T08:19:42;94890.50;;;6.98;100.00
40650;BME280;26342;42.826;23.992;2024-03-02T08:22:08;94886.50;;;6.95;100.00
40650;BME280;26342;42.826;23.992;2024-03-02T08:24:33;94885.75;;;7.00;100.00
40650;BME280;26342;42.826;23.992;2024-03-02T08:26:59;94885.44;;;6.96;100.00
40650;BME280;26342;42.826;23.992;2024-03-02T08:29:25;94878.03;;;6.98;100.00
40650;BME280;26342;42.826;23.992;2024-03-02T08:31:50;94875.44;;;7.04;100.00
40650;BME280;26342;42.826;23.992;2024-03-02T08:34:16;94879.28;;;7.13;100.00
40650;BME280;26342;42.826;23.992;2024-03-02T08:36:41;94871.56;;;7.11;100.00
40650;BME280;26342;42.826;23.992;2024-03-02T08:39:08;94869.06;;;7.26;100.00
40650;BME280;26342;42.826;23.992;2024-03-02T08:41:49;94875.31;;;7.37;100.00
40650;BME280;26342;42.826;23.992;2024-03-02T08:44:14;94873.47;;;7.38;100.00
40650;BME280;26342;42.826;23.992;2024-03-02T08:46:40;94879.06;;;7.41;100.00
40650;BME280;26342;42.826;23.992;2024-03-02T08:49:06;94886.91;;;7.53;100.00
40650;BME280;26342;42.826;23.992;2024-03-02T08:51:32;94882.06;;;7.50;100.00
40650;BME280;26342;42.826;23.992;2024-03-02T08:53:59;94870.81;;;7.38;100.00
40650;BME280;26342;42.826;23.992;2024-03-02T08:56:25;94884.97;;;7.48;100.00
40650;BME280;26342;42.826;23.992;2024-03-02T08:58:51;94883.63;;;7.46;100.00
40650;BME280;26342;42.826;23.992;2024-03-02T09:01:18;94893.34;;;7.35;100.00
40650;BME280;26342;42.826;23.992;2024-03-02T09:03:43;94892.78;;;7.33;100.00
40650;BME280;26342;42.826;23.992;2024-03-02T09:06:12;94883.75;;;7.34;100.00
40650;BME280;26342;42.826;23.992;2024-03-02T09:08:39;94892.22;;;7.31;100.00
40650;BME280;26342;42.826;23.992;2024-03-02T09:11:07;94898.59;;;7.30;100.00
40650;BME280;26342;42.826;23.992;2024-03-02T09:13:33;94899.69;;;7.34;100.00
40650;BME280;26342;42.826;23.992;2024-03-02T09:15:58;94897.59;;;7.36;100.00
40650;BME280;26342;42.826;23.992;2024-03-02T09:18:24;94900.28;;;7.41;100.00
40650;BME280;26342;42.826;23.992;2024-03-02T09:20:49;94894.38;;;7.34;100.00
40650;BME280;26342;42.826;23.992;2024-03-02T09:23:15;94897.28;;;7.33;100.00
40650;BME280;26342;42.826;23.992;2024-03-02T09:25:40;94895.19;;;7.35;100.00
40650;BME280;26342;42.826;23.992;2024-03-02T09:28:06;94906.91;;;7.39;100.00
40650;BME280;26342;42.826;23.992;2024-03-02T09:30:32;94894.81;;;7.48;100.00
40650;BME280;26342;42.826;23.992;2024-03-02T09:32:57;94901.72;;;7.49;100.00
40650;BME280;26342;42.826;23.992;2024-03-02T09:35:23;94906.41;;;7.42;100.00
40650;BME280;26342;42.826;23.992;2024-03-02T09:37:48;94906.41;;;7.42;100.00
40650;BME280;26342;42.826;23.992;2024-03-02T09:40:14;94904.25;;;7.39;100.00
40650;BME280;26342;42.826;23.992;2024-03-02T09:42:40;94906.72;;;7.45;100.00
40650;BME280;26342;42.826;23.992;2024-03-02T09:45:06;94897.19;;;7.49;100.00
40650;BME280;26342;42.826;23.992;2024-03-02T09:47:32;94902.03;;;7.52;100.00
40650;BME280;26342;42.826;23.992;2024-03-02T09:49:57;94900.53;;;7.62;100.00
40650;BME280;26342;42.826;23.992;2024-03-02T09:52:23;94901.59;;;7.61;100.00
40650;BME280;26342;42.826;23.992;2024-03-02T09:54:49;94900.97;;;7.53;100.00
40650;BME280;26342;42.826;23.992;2024-03-02T09:57:14;94910.81;;;7.53;100.00
40650;BME280;26342;42.826;23.992;2024-03-02T09:59:40;94898.13;;;7.60;100.00
40650;BME280;26342;42.826;23.992;2024-03-02T10:02:05;94904.25;;;7.61;100.00
40650;BME280;26342;42.826;23.992;2024-03-02T10:04:32;94908.25;;;7.63;100.00
40650;BME280;26342;42.826;23.992;2024-03-02T10:07:14;94902.03;;;7.52;100.00
40650;BME280;26342;42.826;23.992;2024-03-02T10:09:40;94900.19;;;7.53;100.00
40650;BME280;26342;42.826;23.992;2024-03-02T10:12:08;94901.09;;;7.64;100.00
40650;BME280;26342;42.826;23.992;2024-03-02T10:14:34;94894.91;;;7.58;100.00
40650;BME280;26342;42.826;23.992;2024-03-02T10:17:06;94904.06;;;7.67;100.00
40650;BME280;26342;42.826;23.992;2024-03-02T10:19:32;94895.84;;;7.69;100.00
40650;BME280;26342;42.826;23.992;2024-03-02T10:22:00;94885.47;;;7.67;100.00
40650;BME280;26342;42.826;23.992;2024-03-02T10:24:25;94895.88;;;7.74;100.00
40650;BME280;26342;42.826;23.992;2024-03-02T10:26:52;94900.00;;;7.87;100.00
40650;BME280;26342;42.826;23.992;2024-03-02T10:29:18;94895.28;;;7.94;100.00
40650;BME280;26342;42.826;23.992;2024-03-02T10:31:45;94900.41;;;8.05;100.00
40650;BME280;26342;42.826;23.992;2024-03-02T10:34:11;94893.81;;;8.08;100.00
40650;BME280;26342;42.826;23.992;2024-03-02T10:36:41;94892.03;;;8.19;100.00
40650;BME280;26342;42.826;23.992;2024-03-02T10:39:08;94886.25;;;8.22;100.00
40650;BME280;26342;42.826;23.992;2024-03-02T10:41:35;94887.31;;;8.26;100.00
40650;BME280;26342;42.826;23.992;2024-03-02T10:44:05;94882.41;;;8.39;100.00
40650;BME280;26342;42.826;23.992;2024-03-02T10:46:32;94879.94;;;8.33;100.00
40650;BME280;26342;42.826;23.992;2024-03-02T10:49:00;94884.75;;;8.36;100.00
40650;BME280;26342;42.826;23.992;2024-03-02T10:51:30;94873.13;;;8.42;100.00
40650;BME280;26342;42.826;23.992;2024-03-02T10:53:59;94873.66;;;8.44;100.00
40650;BME280;26342;42.826;23.992;2024-03-02T10:56:30;94877.91;;;8.45;100.00
40650;BME280;26342;42.826;23.992;2024-03-02T10:59:02;94877.22;;;8.55;100.00
40650;BME280;26342;42.826;23.992;2024-03-02T11:01:32;94860.66;;;8.48;100.00
40650;BME280;26342;42.826;23.992;2024-03-02T11:03:59;94874.03;;;8.58;100.00
40650;BME280;26342;42.826;23.992;2024-03-02T11:06:28;94865.78;;;8.59;100.00
40650;BME280;26342;42.826;23.992;2024-03-02T11:08:55;94870.31;;;8.59;100.00
40650;BME280;26342;42.826;23.992;2024-03-02T11:11:29;94875.63;;;8.59;100.00
40650;BME280;26342;42.826;23.992;2024-03-02T11:13:57;94870.03;;;8.60;100.00
40650;BME280;26342;42.826;23.992;2024-03-02T11:16:34;94868.50;;;8.64;100.00
40650;BME280;26342;42.826;23.992;2024-03-02T11:19:10;94871.41;;;8.68;100.00
40650;BME280;26342;42.826;23.992;2024-03-02T11:21:36;94871.69;;;8.66;100.00
40650;BME280;26342;42.826;23.992;2024-03-02T11:26:59;94875.16;;;8.67;100.00
40650;BME280;26342;42.826;23.992;2024-03-02T11:29:45;94875.44;;;8.71;100.00
40650;BME280;26342;42.826;23.992;2024-03-02T11:32:20;94876.78;;;8.73;100.00
40650;BME280;26342;42.826;23.992;2024-03-02T11:34:48;94874.56;;;8.60;100.00
40650;BME280;26342;42.826;23.992;2024-03-02T11:37:16;94863.34;;;8.53;100.00
40650;BME280;26342;42.826;23.992;2024-03-02T11:39:44;94858.00;;;8.48;100.00
40650;BME280;26342;42.826;23.992;2024-03-02T11:42:11;94860.41;;;8.49;100.00
40650;BME280;26342;42.826;23.992;2024-03-02T11:44:39;94864.72;;;8.60;100.00
40650;BME280;26342;42.826;23.992;2024-03-02T11:47:06;94875.44;;;8.71;100.00
40650;BME280;26342;42.826;23.992;2024-03-02T11:49:39;94870.09;;;8.65;100.00
40650;BME280;26342;42.826;23.992;2024-03-02T11:52:07;94875.72;;;8.69;100.00
40650;BME280;26342;42.826;23.992;2024-03-02T11:54:33;94871.41;;;8.63;100.00
40650;BME280;26342;42.826;23.992;2024-03-02T11:57:05;94869.72;;;8.52;100.00
40650;BME280;26342;42.826;23.992;2024-03-02T11:59:30;94866.56;;;8.55;100.00
40650;BME280;26342;42.826;23.992;2024-03-02T12:01:57;94866.25;;;8.51;100.00
40650;BME280;26342;42.826;23.992;2024-03-02T12:04:23;94871.63;;;8.56;100.00
40650;BME280;26342;42.826;23.992;2024-03-02T12:07:09;94865.28;;;8.62;100.00
40650;BME280;26342;42.826;23.992;2024-03-02T12:09:34;94858.69;;;8.70;100.00
40650;BME280;26342;42.826;23.992;2024-03-02T12:12:09;94863.53;;;8.78;100.00
40650;BME280;26342;42.826;23.992;2024-03-02T12:14:36;94868.31;;;8.81;100.00
40650;BME280;26342;42.826;23.992;2024-03-02T12:17:03;94861.97;;;8.87;100.00
40650;BME280;26342;42.826;23.992;2024-03-02T12:19:29;94863.63;;;8.99;100.00
40650;BME280;26342;42.826;23.992;2024-03-02T12:21:59;94871.09;;;9.02;100.00
40650;BME280;26342;42.826;23.992;2024-03-02T12:24:30;94874.88;;;9.11;100.00
40650;BME280;26342;42.826;23.992;2024-03-02T12:26:56;94848.19;;;8.95;100.00
40650;BME280;26342;42.826;23.992;2024-03-02T12:29:22;94867.94;;;9.10;100.00
40650;BME280;26342;42.826;23.992;2024-03-02T12:31:50;94873.22;;;9.05;100.00
40650;BME280;26342;42.826;23.992;2024-03-02T12:34:17;94862.84;;;9.03;100.00
40650;BME280;26342;42.826;23.992;2024-03-02T12:36:43;94865.53;;;9.08;100.00
40650;BME280;26342;42.826;23.992;2024-03-02T12:39:09;94870.38;;;9.16;100.00
40650;BME280;26342;42.826;23.992;2024-03-02T12:41:38;94867.94;;;9.15;100.00
40650;BME280;26342;42.826;23.992;2024-03-02T12:44:04;94867.63;;;9.01;100.00
40650;BME280;26342;42.826;23.992;2024-03-02T12:46:31;94863.88;;;8.97;100.00
40650;BME280;26342;42.826;23.992;2024-03-02T12:48:56;94868.94;;;8.99;100.00
40650;BME280;26342;42.826;23.992;2024-03-02T12:51:22;94871.59;;;8.93;100.00